createdAt,value
2023-02-19T00:01:15.711Z,8.13
2023-02-19T00:03:43.799Z,7.95
2023-02-19T00:06:11.528Z,9.02
2023-02-19T00:08:39.798Z,7.60
2023-02-19T00:11:09.667Z,7.97
2023-02-19T00:13:42.338Z,6.93
2023-02-19T00:16:11.830Z,6.53
2023-02-19T00:18:40.402Z,8.13
2023-02-19T00:21:07.431Z,6.55
2023-02-19T00:23:34.929Z,6.82
2023-02-19T00:26:17.738Z,5.90
2023-02-19T00:28:47.818Z,5.50
2023-02-19T00:31:18.339Z,6.13
2023-02-19T00:33:47.734Z,5.50
2023-02-19T00:36:16.371Z,5.47
2023-02-19T00:38:44.338Z,5.63
2023-02-19T00:41:21.735Z,5.40
2023-02-19T00:44:00.000Z,6.25
2023-02-19T00:46:32.243Z,5.30
2023-02-19T00:48:59.504Z,5.82
2023-02-19T00:51:29.337Z,5.70
2023-02-19T00:53:56.452Z,5.63
2023-02-19T00:56:23.270Z,5.68
2023-02-19T00:58:49.999Z,6.68
2023-02-19T01:01:17.368Z,6.18
2023-02-19T01:03:44.132Z,6.03
2023-02-19T01:06:13.104Z,6.70
2023-02-19T01:08:42.189Z,6.70
2023-02-19T01:11:10.573Z,6.35
2023-02-19T01:13:37.890Z,6.43
2023-02-19T01:16:19.872Z,7.20
2023-02-19T01:18:47.811Z,7.78
2023-02-19T01:21:18.585Z,8.38
2023-02-19T01:23:45.723Z,7.85
2023-02-19T01:26:15.271Z,8.30
2023-02-19T01:28:42.703Z,8.05
2023-02-19T01:31:14.455Z,7.70
2023-02-19T01:33:48.506Z,8.77
2023-02-19T01:36:15.720Z,8.88
2023-02-19T01:38:42.731Z,8.48
2023-02-19T01:41:16.476Z,8.55
2023-02-19T01:44:01.925Z,7.82
2023-02-19T01:46:33.796Z,7.78
2023-02-19T01:49:17.967Z,7.80
2023-02-19T01:51:48.601Z,7.18
2023-02-19T01:54:19.808Z,7.03
2023-02-19T01:56:48.900Z,7.85
2023-02-19T01:59:17.061Z,7.88
2023-02-19T02:01:43.869Z,8.65
2023-02-19T02:04:13.422Z,7.45
2023-02-19T02:06:52.121Z,6.82
2023-02-19T02:09:38.708Z,7.53
2023-02-19T02:12:05.628Z,7.43
2023-02-19T02:14:37.328Z,8.13
2023-02-19T02:17:46.079Z,6.15
2023-02-19T02:20:15.749Z,6.38
2023-02-19T02:22:51.120Z,6.30
2023-02-19T02:25:23.698Z,5.82
2023-02-19T02:28:27.320Z,5.50
2023-02-19T02:30:59.939Z,6.28
2023-02-19T02:33:43.047Z,4.88
2023-02-19T02:36:21.717Z,5.13
2023-02-19T02:41:16.559Z,5.20
2023-02-19T02:43:43.217Z,5.38
2023-02-19T02:46:12.525Z,3.90
2023-02-19T02:48:46.276Z,4.60
2023-02-19T02:51:32.011Z,4.07
2023-02-19T02:54:32.641Z,4.20
2023-02-19T02:56:59.822Z,3.90
2023-02-19T02:59:31.763Z,3.80
2023-02-19T03:02:11.876Z,4.40
2023-02-19T03:05:25.145Z,4.50
2023-02-19T03:08:17.551Z,4.88
2023-02-19T03:10:56.448Z,4.30
2023-02-19T03:13:49.278Z,4.57
2023-02-19T03:16:42.505Z,4.43
2023-02-19T03:19:20.370Z,4.82
2023-02-19T03:21:54.997Z,5.97
2023-02-19T03:24:46.119Z,4.97
2023-02-19T03:27:15.374Z,5.20
2023-02-19T03:29:44.711Z,4.72
2023-02-19T03:32:23.718Z,5.25
2023-02-19T03:34:58.294Z,5.80
2023-02-19T03:37:57.835Z,5.63
2023-02-19T03:40:28.211Z,5.50
2023-02-19T03:43:19.771Z,5.40
2023-02-19T03:45:57.056Z,4.95
2023-02-19T03:48:33.864Z,5.72
2023-02-19T03:51:26.960Z,5.00
2023-02-19T03:54:15.201Z,5.53
2023-02-19T03:57:17.518Z,5.18
2023-02-19T03:59:55.608Z,4.63
2023-02-19T04:02:48.496Z,4.82
2023-02-19T04:05:29.645Z,4.60
2023-02-19T04:08:01.454Z,4.38
2023-02-19T04:10:29.018Z,5.10
2023-02-19T04:13:00.848Z,5.57
2023-02-19T04:15:33.811Z,4.70
2023-02-19T04:18:05.930Z,4.88
2023-02-19T04:20:39.137Z,4.97
2023-02-19T04:23:06.454Z,4.97
2023-02-19T04:25:35.349Z,4.65
2023-02-19T04:28:03.319Z,4.47
2023-02-19T04:30:30.163Z,4.00
2023-02-19T04:32:56.866Z,4.45
2023-02-19T04:35:23.538Z,5.07
2023-02-19T04:37:50.159Z,4.78
2023-02-19T04:40:17.251Z,4.88
2023-02-19T04:42:43.987Z,4.57
2023-02-19T04:45:10.666Z,4.93
2023-02-19T04:47:37.437Z,5.38
2023-02-19T04:50:04.539Z,4.47
2023-02-19T04:52:31.253Z,4.30
2023-02-19T04:54:58.019Z,4.85
2023-02-19T04:57:24.774Z,3.83
2023-02-19T04:59:53.125Z,4.28
2023-02-19T05:02:19.916Z,4.63
2023-02-19T05:04:47.610Z,5.13
2023-02-19T05:07:14.305Z,3.72
2023-02-19T05:09:40.931Z,4.10
2023-02-19T05:12:07.590Z,4.30
2023-02-19T05:14:34.210Z,3.50
2023-02-19T05:17:00.964Z,4.32
2023-02-19T05:19:27.677Z,4.15
2023-02-19T05:21:54.357Z,4.78
2023-02-19T05:24:21.141Z,4.45
2023-02-19T05:26:48.674Z,4.20
2023-02-19T05:29:15.419Z,4.07
2023-02-19T05:31:42.487Z,3.63
2023-02-19T05:34:09.361Z,4.63
2023-02-19T05:36:37.198Z,3.45
2023-02-19T05:39:06.169Z,5.13
2023-02-19T05:41:34.013Z,3.90
2023-02-19T05:44:00.709Z,4.77
2023-02-19T05:46:29.977Z,4.00
2023-02-19T05:48:58.162Z,4.50
2023-02-19T05:51:26.519Z,4.35
2023-02-19T05:53:53.790Z,4.13
2023-02-19T05:56:26.270Z,3.58
2023-02-19T05:58:53.867Z,5.95
2023-02-19T06:01:22.619Z,4.70
2023-02-19T06:03:49.409Z,4.28
2023-02-19T06:06:18.047Z,4.13
2023-02-19T06:08:45.227Z,3.65
2023-02-19T06:11:12.336Z,4.80
2023-02-19T06:13:39.298Z,3.75
2023-02-19T06:16:07.682Z,3.90
2023-02-19T06:18:34.495Z,4.13
2023-02-19T06:21:06.207Z,4.20
2023-02-19T06:23:33.340Z,3.55
2023-02-19T06:26:16.184Z,4.10
2023-02-19T06:28:43.043Z,3.60
2023-02-19T06:31:11.379Z,4.03
2023-02-19T06:33:41.924Z,4.05
2023-02-19T06:36:15.044Z,3.58
2023-02-19T06:38:42.409Z,4.00
2023-02-19T06:41:10.438Z,4.28
2023-02-19T06:43:37.331Z,4.30
2023-02-19T06:46:06.155Z,4.45
2023-02-19T06:48:33.665Z,4.60
2023-02-19T06:51:00.568Z,5.03
2023-02-19T06:53:27.676Z,4.57
2023-02-19T06:56:01.492Z,4.93
2023-02-19T06:58:28.553Z,5.55
2023-02-19T07:00:56.622Z,4.75
2023-02-19T07:03:23.847Z,5.15
2023-02-19T07:05:50.579Z,5.13
2023-02-19T07:08:17.460Z,5.47
2023-02-19T07:10:45.522Z,5.78
2023-02-19T07:13:12.287Z,6.05
2023-02-19T07:15:38.998Z,5.38
2023-02-19T07:18:07.593Z,5.78
2023-02-19T07:20:35.291Z,5.55
2023-02-19T07:23:01.946Z,5.60
2023-02-19T07:25:28.677Z,5.93
2023-02-19T07:27:55.446Z,5.68
2023-02-19T07:30:22.198Z,5.53
2023-02-19T07:32:48.943Z,5.47
2023-02-19T07:35:15.744Z,6.00
2023-02-19T07:37:42.475Z,6.57
2023-02-19T07:40:09.391Z,6.47
2023-02-19T07:42:36.035Z,7.15
2023-02-19T07:45:02.770Z,8.40
2023-02-19T07:47:29.899Z,8.32
2023-02-19T07:49:56.600Z,8.30
2023-02-19T07:52:23.421Z,8.55
2023-02-19T07:54:50.299Z,8.40
2023-02-19T07:57:17.018Z,8.23
2023-02-19T07:59:43.691Z,8.20
2023-02-19T08:02:37.174Z,8.70
2023-02-19T08:05:05.621Z,9.25
2023-02-19T08:07:37.383Z,9.82
2023-02-19T08:10:23.801Z,10.00
2023-02-19T08:13:16.602Z,10.88
2023-02-19T08:15:43.626Z,10.68
2023-02-19T08:18:10.722Z,9.98
2023-02-19T08:20:37.558Z,9.52
2023-02-19T08:23:04.559Z,10.27
2023-02-19T08:25:31.621Z,10.27
2023-02-19T08:28:02.977Z,10.70
2023-02-19T08:30:31.387Z,9.95
2023-02-19T08:33:01.871Z,11.52
2023-02-19T08:35:29.041Z,10.65
2023-02-19T08:37:57.249Z,12.05
2023-02-19T08:40:24.654Z,10.95
2023-02-19T08:42:51.422Z,10.82
2023-02-19T08:45:19.107Z,11.55
2023-02-19T08:47:46.285Z,12.05
2023-02-19T08:50:13.117Z,10.70
2023-02-19T08:52:39.886Z,10.77
2023-02-19T08:55:06.991Z,10.30
2023-02-19T08:57:37.598Z,11.52
2023-02-19T09:00:05.485Z,11.15
2023-02-19T09:02:32.306Z,12.63
2023-02-19T09:05:00.276Z,11.02
2023-02-19T09:07:27.301Z,10.77
2023-02-19T09:09:54.098Z,11.05
2023-02-19T09:12:20.782Z,11.90
2023-02-19T09:14:47.745Z,11.32
2023-02-19T09:17:14.402Z,10.23
2023-02-19T09:19:41.047Z,9.43
2023-02-19T09:22:07.742Z,9.68
2023-02-19T09:24:34.526Z,8.82
2023-02-19T09:27:01.255Z,8.23
2023-02-19T09:29:28.844Z,7.80
2023-02-19T09:32:00.000Z,7.57
2023-02-19T09:34:28.557Z,6.85
2023-02-19T09:36:55.539Z,6.30
2023-02-19T09:39:22.326Z,6.18
2023-02-19T09:41:50.419Z,5.25
2023-02-19T09:44:24.900Z,5.95
2023-02-19T09:46:53.259Z,6.32
2023-02-19T09:49:33.703Z,5.43
2023-02-19T09:52:07.677Z,5.88
2023-02-19T09:54:37.259Z,5.40
2023-02-19T09:57:05.828Z,5.60
2023-02-19T10:02:18.463Z,4.90
2023-02-19T10:04:47.043Z,4.50
2023-02-19T10:07:16.150Z,4.78
2023-02-19T10:09:48.371Z,4.25
2023-02-19T10:12:18.673Z,4.45
2023-02-19T10:14:49.884Z,1.40
2023-02-19T10:17:31.720Z,1.70
2023-02-19T10:19:58.580Z,1.45
2023-02-19T10:22:25.528Z,1.58
2023-02-19T10:24:56.625Z,1.38
2023-02-19T10:27:30.045Z,1.40
2023-02-19T10:29:58.859Z,1.50
2023-02-19T10:32:27.449Z,1.60
2023-02-19T10:35:15.534Z,1.60
2023-02-19T10:37:48.708Z,2.08
2023-02-19T10:40:29.047Z,2.15
2023-02-19T10:43:02.395Z,2.42
2023-02-19T10:45:39.330Z,2.20
2023-02-19T10:48:07.635Z,2.88
2023-02-19T10:50:39.282Z,3.80
2023-02-19T10:53:05.950Z,3.05
2023-02-19T10:55:37.843Z,3.30
2023-02-19T10:58:27.272Z,3.83
2023-02-19T11:01:20.263Z,3.33
2023-02-19T11:03:49.277Z,1.90
2023-02-19T11:06:18.520Z,2.00
2023-02-19T11:08:59.783Z,2.10
2023-02-19T11:11:36.930Z,2.20
2023-02-19T11:14:20.116Z,2.63
2023-02-19T11:16:50.086Z,2.83
2023-02-19T11:19:48.187Z,2.80
2023-02-19T11:22:37.461Z,2.63
2023-02-19T11:25:25.860Z,3.00
2023-02-19T11:28:20.514Z,2.17
2023-02-19T11:30:48.049Z,1.92
2023-02-19T11:33:19.831Z,1.52
2023-02-19T11:35:52.448Z,1.70
2023-02-19T11:38:19.648Z,1.75
2023-02-19T11:40:57.779Z,2.40
2023-02-19T11:43:53.293Z,2.65
2023-02-19T11:46:48.145Z,2.47
2023-02-19T11:49:24.642Z,2.63
2023-02-19T11:52:00.138Z,3.00
2023-02-19T11:54:41.890Z,2.90
2023-02-19T11:57:36.674Z,3.08
2023-02-19T12:00:39.325Z,3.40
2023-02-19T12:03:44.182Z,4.95
2023-02-19T12:06:23.939Z,5.05
2023-02-19T12:09:06.471Z,2.65
2023-02-19T12:12:03.546Z,1.98
2023-02-19T12:14:51.774Z,3.13
2023-02-19T12:17:41.435Z,2.00
2023-02-19T12:20:33.847Z,3.00
2023-02-19T12:23:32.346Z,1.70
2023-02-19T12:26:28.626Z,1.83
2023-02-19T12:29:32.652Z,1.30
2023-02-19T12:32:20.446Z,1.20
2023-02-19T12:35:08.945Z,1.20
2023-02-19T12:40:20.470Z,1.40
2023-02-19T12:43:26.089Z,1.20
2023-02-19T12:46:20.606Z,0.82
2023-02-19T12:48:55.638Z,1.17
2023-02-19T12:51:33.028Z,1.10
2023-02-19T12:54:23.872Z,1.27
2023-02-19T12:57:21.599Z,1.20
2023-02-19T13:00:00.068Z,1.20
2023-02-19T13:02:46.186Z,1.40
2023-02-19T13:05:25.734Z,1.40
2023-02-19T13:08:25.217Z,1.10
2023-02-19T13:10:58.930Z,1.00
2023-02-19T13:13:35.603Z,1.10
2023-02-19T13:16:10.235Z,0.98
2023-02-19T13:18:46.820Z,1.30
2023-02-19T13:21:35.661Z,2.03
2023-02-19T13:24:08.712Z,1.30
2023-02-19T13:27:08.575Z,1.40
2023-02-19T13:29:51.340Z,1.30
2023-02-19T13:32:58.181Z,1.30
2023-02-19T13:35:43.529Z,1.70
2023-02-19T13:38:14.866Z,1.05
2023-02-19T13:40:52.417Z,1.25
2023-02-19T13:43:27.778Z,2.17
2023-02-19T13:46:07.779Z,2.15
2023-02-19T13:48:39.761Z,1.80
2023-02-19T13:51:24.642Z,1.50
2023-02-19T13:53:58.363Z,1.60
2023-02-19T13:56:34.126Z,1.77
2023-02-19T13:59:24.499Z,2.20
2023-02-19T14:01:54.326Z,1.17
2023-02-19T14:04:47.399Z,2.35
2023-02-19T14:07:13.997Z,1.17
2023-02-19T14:09:40.862Z,1.92
2023-02-19T14:12:07.483Z,1.38
2023-02-19T14:14:35.510Z,1.20
2023-02-19T14:17:17.629Z,2.28
2023-02-19T14:19:46.100Z,2.30
2023-02-19T14:22:47.801Z,1.23
2023-02-19T14:25:52.772Z,1.92
2023-02-19T14:28:35.518Z,1.35
2023-02-19T14:31:11.627Z,1.10
2023-02-19T14:33:43.709Z,1.20
2023-02-19T14:36:44.231Z,1.10
2023-02-19T14:39:13.504Z,0.90
2023-02-19T14:41:43.795Z,0.90
2023-02-19T14:44:48.779Z,0.90
2023-02-19T14:47:19.612Z,1.05
2023-02-19T14:49:49.103Z,1.17
2023-02-19T14:52:19.840Z,4.57
2023-02-19T14:54:53.972Z,1.58
2023-02-19T14:57:32.799Z,1.00
2023-02-19T15:00:01.768Z,0.47
2023-02-19T15:02:30.743Z,0.50
2023-02-19T15:04:58.043Z,0.70
2023-02-19T15:07:33.899Z,0.55
2023-02-19T15:10:05.406Z,0.60
2023-02-19T15:12:47.778Z,0.50
2023-02-19T15:15:28.177Z,0.50
2023-02-19T15:17:57.148Z,0.55
2023-02-19T15:20:27.864Z,0.60
2023-02-19T15:22:56.218Z,0.60
2023-02-19T15:25:26.990Z,0.70
2023-02-19T15:27:53.769Z,0.60
2023-02-19T15:30:29.484Z,0.60
2023-02-19T15:32:59.026Z,3.80
2023-02-19T15:35:27.872Z,4.13
2023-02-19T15:37:55.370Z,1.70
2023-02-19T15:40:28.361Z,1.90
2023-02-19T15:42:55.300Z,1.20
2023-02-19T15:45:44.823Z,1.80
2023-02-19T15:48:24.217Z,0.80
2023-02-19T15:51:04.865Z,1.17
2023-02-19T15:53:34.209Z,1.30
2023-02-19T15:56:14.787Z,1.60
2023-02-19T15:58:51.034Z,1.30
2023-02-19T16:01:25.156Z,1.48
2023-02-19T16:03:54.093Z,3.72
2023-02-19T16:06:22.101Z,1.80
2023-02-19T16:09:01.769Z,1.13
2023-02-19T16:11:47.482Z,0.90
2023-02-19T16:14:18.961Z,1.00
2023-02-19T16:16:47.972Z,1.00
2023-02-19T16:19:32.509Z,2.75
2023-02-19T16:22:00.619Z,1.77
2023-02-19T16:24:38.023Z,4.30
2023-02-19T16:27:07.485Z,5.55
2023-02-19T16:29:34.545Z,2.88
2023-02-19T16:32:04.382Z,1.77
2023-02-19T16:34:39.763Z,5.43
2023-02-19T16:37:42.302Z,5.63
2023-02-19T16:40:09.013Z,1.85
2023-02-19T16:43:24.563Z,2.28
2023-02-19T16:45:51.336Z,2.00
2023-02-19T16:48:20.967Z,2.17
2023-02-19T16:50:47.667Z,2.70
2023-02-19T16:53:20.631Z,2.78
2023-02-19T16:55:48.435Z,2.70
2023-02-19T16:58:15.219Z,2.60
2023-02-19T17:00:42.375Z,2.60
2023-02-19T17:03:17.287Z,2.63
2023-02-19T17:05:44.866Z,2.20
2023-02-19T17:08:26.406Z,1.70
2023-02-19T17:10:55.826Z,1.75
2023-02-19T17:13:22.807Z,1.50
2023-02-19T17:15:50.576Z,1.67
2023-02-19T17:18:18.463Z,1.80
2023-02-19T17:20:51.742Z,1.30
2023-02-19T17:23:18.510Z,1.30
2023-02-19T17:25:45.195Z,1.23
2023-02-19T17:28:12.358Z,1.02
2023-02-19T17:30:40.190Z,1.20
2023-02-19T17:33:07.357Z,3.95
2023-02-19T17:35:34.370Z,1.88
2023-02-19T17:38:01.078Z,10.35
2023-02-19T17:40:33.723Z,8.52
2023-02-19T17:43:01.302Z,3.15
2023-02-19T17:45:28.372Z,5.40
2023-02-19T17:47:55.317Z,4.15
2023-02-19T17:50:27.690Z,3.40
2023-02-19T17:52:54.422Z,3.40
2023-02-19T17:55:21.200Z,1.90
2023-02-19T17:57:50.620Z,1.90
2023-02-19T18:00:22.937Z,2.60
2023-02-19T18:02:49.725Z,2.55
2023-02-19T18:05:16.899Z,2.03
2023-02-19T18:07:44.198Z,1.85
2023-02-19T18:10:11.298Z,1.25
2023-02-19T18:12:39.328Z,1.60
2023-02-19T18:15:08.039Z,1.88
2023-02-19T18:20:01.869Z,1.23
2023-02-19T18:22:28.536Z,1.30
2023-02-19T18:24:55.458Z,1.48
2023-02-19T18:27:23.502Z,1.00
2023-02-19T18:29:52.114Z,1.30
2023-02-19T18:32:21.084Z,1.02
2023-02-19T18:34:52.615Z,1.02
2023-02-19T18:37:20.307Z,1.38
2023-02-19T18:39:47.238Z,1.20
2023-02-19T18:42:14.662Z,2.03
2023-02-19T18:44:41.652Z,2.08
2023-02-19T18:47:09.890Z,1.63
2023-02-19T18:49:36.631Z,1.13
2023-02-19T18:52:03.649Z,1.45
2023-02-19T18:54:31.546Z,1.45
2023-02-19T18:57:03.740Z,1.40
2023-02-19T18:59:31.159Z,1.35
2023-02-19T19:01:58.322Z,1.58
2023-02-19T19:04:24.976Z,1.30
2023-02-19T19:06:51.760Z,1.10
2023-02-19T19:09:18.790Z,1.13
2023-02-19T19:11:46.593Z,0.93
2023-02-19T19:14:14.333Z,1.07
2023-02-19T19:16:42.208Z,0.93
2023-02-19T19:19:09.110Z,1.67
2023-02-19T19:21:35.798Z,1.25
2023-02-19T19:24:02.489Z,1.30
2023-02-19T19:26:29.171Z,1.25
2023-02-19T19:28:55.858Z,1.50
2023-02-19T19:31:24.722Z,1.58
2023-02-19T19:33:51.903Z,1.50
2023-02-19T19:36:21.273Z,1.77
2023-02-19T19:38:48.662Z,1.52
2023-02-19T19:41:18.183Z,1.67
2023-02-19T19:43:44.944Z,1.38
2023-02-19T19:46:11.887Z,1.85
2023-02-19T19:48:41.617Z,1.90
2023-02-19T19:51:08.234Z,1.48
2023-02-19T19:53:35.192Z,3.10
2023-02-19T19:56:02.250Z,2.40
2023-02-19T19:58:29.217Z,1.63
2023-02-19T20:00:56.167Z,2.08
2023-02-19T20:03:22.990Z,2.00
2023-02-19T20:05:52.663Z,1.80
2023-02-19T20:08:19.705Z,2.03
2023-02-19T20:10:46.770Z,1.50
2023-02-19T20:13:24.301Z,1.60
2023-02-19T20:15:51.974Z,1.73
2023-02-19T20:18:19.141Z,1.55
2023-02-19T20:20:45.906Z,1.90
2023-02-19T20:23:12.629Z,1.70
2023-02-19T20:25:39.325Z,2.22
2023-02-19T20:28:06.089Z,2.38
2023-02-19T20:30:32.751Z,2.50
2023-02-19T20:32:59.657Z,2.95
2023-02-19T20:35:28.607Z,2.65
2023-02-19T20:37:55.766Z,2.72
2023-02-19T20:40:27.682Z,2.88
2023-02-19T20:42:54.471Z,3.50
2023-02-19T20:45:21.465Z,3.40
2023-02-19T20:47:48.149Z,3.00
2023-02-19T20:50:17.441Z,3.38
2023-02-19T20:52:44.758Z,3.75
2023-02-19T20:55:11.601Z,3.20
2023-02-19T20:57:38.255Z,3.70
2023-02-19T21:00:06.038Z,4.07
2023-02-19T21:02:32.827Z,3.75
2023-02-19T21:05:01.251Z,3.83
2023-02-19T21:07:27.937Z,3.60
2023-02-19T21:09:54.816Z,3.90
2023-02-19T21:12:22.555Z,4.05
2023-02-19T21:14:49.287Z,5.05
2023-02-19T21:17:16.021Z,4.70
2023-02-19T21:19:42.788Z,5.47
2023-02-19T21:22:09.434Z,4.78
2023-02-19T21:24:36.548Z,5.13
2023-02-19T21:27:03.434Z,5.13
2023-02-19T21:29:30.251Z,4.63
2023-02-19T21:31:58.255Z,4.95
2023-02-19T21:34:28.246Z,3.97
2023-02-19T21:36:55.961Z,4.65
2023-02-19T21:39:24.587Z,4.60
2023-02-19T21:41:51.465Z,5.30
2023-02-19T21:44:18.694Z,5.03
2023-02-19T21:46:45.467Z,4.15
2023-02-19T21:49:12.933Z,3.63
2023-02-19T21:51:41.713Z,3.88
2023-02-19T21:56:36.710Z,3.67
2023-02-19T21:59:04.148Z,4.00
2023-02-19T22:01:38.505Z,3.97
2023-02-19T22:04:07.231Z,4.47
2023-02-19T22:06:34.390Z,4.22
2023-02-19T22:09:01.490Z,3.97
2023-02-19T22:11:28.537Z,4.90
2023-02-19T22:13:56.328Z,4.15
2023-02-19T22:16:23.721Z,4.32
2023-02-19T22:18:52.352Z,4.50
2023-02-19T22:21:20.248Z,4.82
2023-02-19T22:23:47.899Z,4.80
2023-02-19T22:26:31.280Z,5.13
2023-02-19T22:28:59.493Z,5.30
2023-02-19T22:31:28.078Z,4.47
2023-02-19T22:33:56.064Z,4.95
2023-02-19T22:36:25.173Z,5.10
2023-02-19T22:38:52.851Z,6.22
2023-02-19T22:41:21.294Z,5.93
2023-02-19T22:43:50.036Z,6.60
2023-02-19T22:46:20.138Z,5.82
2023-02-19T22:48:46.940Z,5.50
2023-02-19T22:51:16.003Z,6.47
2023-02-19T22:53:56.843Z,6.03
2023-02-19T22:56:26.949Z,6.10
2023-02-19T22:58:55.035Z,6.18
2023-02-19T23:01:22.153Z,6.15
2023-02-19T23:03:53.275Z,6.95
2023-02-19T23:06:31.725Z,6.72
2023-02-19T23:09:10.333Z,7.68
2023-02-19T23:11:39.122Z,6.65
2023-02-19T23:14:06.896Z,6.85
2023-02-19T23:16:35.962Z,7.50
2023-02-19T23:19:07.002Z,6.80
2023-02-19T23:21:33.715Z,7.25
2023-02-19T23:24:00.625Z,6.95
2023-02-19T23:26:27.296Z,8.18
2023-02-19T23:28:55.244Z,8.70
2023-02-19T23:31:22.188Z,8.70
2023-02-19T23:33:49.006Z,8.00
2023-02-19T23:36:16.595Z,8.82
2023-02-19T23:38:46.792Z,8.23
2023-02-19T23:41:16.179Z,9.20
2023-02-19T23:43:42.928Z,8.60
2023-02-19T23:46:13.458Z,9.65
2023-02-19T23:48:40.459Z,9.43
2023-02-19T23:51:07.257Z,9.98
2023-02-19T23:53:33.927Z,11.02
2023-02-19T23:56:00.896Z,10.00
2023-02-19T23:58:27.622Z,10.82
